Time;durP1;ratioP1;P1;durP2;ratioP2;P2;SDS_P1;SDS_P2;PMS_P1;PMS_P2;Temp;Humidity;BMP_temperature;BMP_pressure;BME280_temperature;BME280_humidity;BME280_pressure;Samples;Min_cycle;Max_cycle;Signal;HPM_P1;HPM_P2
2023/10/30 00:00:08;;;;;;;2.33;1.90;;;;;;;12.30;100.00;154517.47;5004532;28;21027;-75
2023/10/30 00:02:34;;;;;;;1.70;1.37;;;;;;;12.28;100.00;154512.31;5000044;28;20472;-76
2023/10/30 00:05:01;;;;;;;1.63;1.40;;;;;;;12.26;100.00;154507.13;5018938;28;20869;-76
2023/10/30 00:07:28;;;;;;;2.70;1.77;;;;;;;12.26;100.00;154507.13;5021046;28;20459;-75
2023/10/30 00:09:54;;;;;;;1.70;1.20;;;;;;;12.26;100.00;154507.13;5019913;28;20929;-75
2023/10/30 00:12:21;;;;;;;2.07;1.73;;;;;;;12.27;100.00;154509.69;5025586;28;20566;-75
2023/10/30 00:14:47;;;;;;;2.53;1.70;;;;;;;12.29;100.00;154514.84;5007016;28;20530;-75
2023/10/30 00:17:15;;;;;;;2.20;1.70;;;;;;;12.29;100.00;154514.84;4980363;28;20793;-75
2023/10/30 00:19:42;;;;;;;2.60;1.80;;;;;;;12.30;100.00;154517.47;5018639;28;20463;-75
2023/10/30 00:22:11;;;;;;;1.73;1.33;;;;;;;12.36;100.00;154533.03;5016882;28;20455;-76
2023/10/30 00:24:37;;;;;;;3.70;1.83;;;;;;;12.30;100.00;154517.47;5023287;28;20554;-76
2023/10/30 00:27:04;;;;;;;1.83;1.60;;;;;;;12.26;100.00;154507.13;4986742;28;20446;-75
2023/10/30 00:29:35;;;;;;;2.80;1.67;;;;;;;12.24;100.00;154503.19;4989583;28;20503;-75
2023/10/30 00:32:02;;;;;;;2.70;2.13;;;;;;;12.21;100.00;154496.72;5000688;28;20486;-76
2023/10/30 00:34:30;;;;;;;2.03;1.80;;;;;;;12.23;100.00;154499.34;5021496;28;20447;-75
2023/10/30 00:36:56;;;;;;;2.00;1.80;;;;;;;12.19;100.00;154491.56;5027241;28;20521;-75
2023/10/30 00:39:23;;;;;;;3.43;1.77;;;;;;;12.19;100.00;154491.56;5026348;28;20463;-76
2023/10/30 00:41:50;;;;;;;2.60;1.60;;;;;;;12.20;100.00;154492.84;5028012;28;20440;-76
2023/10/30 00:44:16;;;;;;;1.90;1.40;;;;;;;12.23;100.00;154499.34;5024120;28;20443;-75
2023/10/30 00:46:43;;;;;;;2.00;1.40;;;;;;;12.30;100.00;154518.78;5024197;28;20456;-76
2023/10/30 00:49:10;;;;;;;2.50;1.80;;;;;;;12.27;100.00;154511.00;5003297;28;20470;-75
2023/10/30 00:51:37;;;;;;;2.20;1.73;;;;;;;12.31;100.00;154521.34;5023325;28;20966;-75
2023/10/30 00:54:04;;;;;;;2.10;1.60;;;;;;;12.32;100.00;154522.66;5027755;28;20938;-76
2023/10/30 00:56:31;;;;;;;1.60;1.30;;;;;;;12.33;100.00;154526.56;5003662;28;20488;-75
2023/10/30 00:58:57;;;;;;;1.70;1.10;;;;;;;12.35;100.00;154531.75;4984368;28;21017;-75
2023/10/30 01:01:25;;;;;;;1.53;1.00;;;;;;;12.38;100.00;154538.22;5007189;28;20478;-75
2023/10/30 01:03:51;;;;;;;2.83;1.20;;;;;;;12.41;100.00;154546.00;5016926;28;20566;-75
2023/10/30 01:06:18;;;;;;;1.23;0.90;;;;;;;12.40;100.00;154544.69;5016063;28;20459;-75
2023/10/30 01:08:46;;;;;;;1.33;1.00;;;;;;;12.43;100.00;154552.50;5004035;28;20456;-75
2023/10/30 01:11:12;;;;;;;1.47;0.90;;;;;;;12.46;100.00;154558.97;5019426;28;20773;-76
2023/10/30 01:13:39;;;;;;;1.60;1.10;;;;;;;12.46;100.00;154558.97;4985407;28;20475;-75
2023/10/30 01:16:06;;;;;;;1.70;0.90;;;;;;;12.45;100.00;154556.34;5016741;28;20867;-76
2023/10/30 01:18:33;;;;;;;1.50;1.20;;;;;;;12.46;100.00;154560.28;5001730;28;20556;-75
2023/10/30 01:20:59;;;;;;;1.57;1.10;;;;;;;12.45;100.00;154556.34;5007499;28;20881;-75
2023/10/30 01:23:26;;;;;;;1.47;0.90;;;;;;;12.44;100.00;154553.78;5016097;28;20555;-76
2023/10/30 01:25:54;;;;;;;1.63;1.30;;;;;;;12.41;100.00;154546.00;5018837;28;20477;-76
2023/10/30 01:28:20;;;;;;;1.80;1.20;;;;;;;12.41;100.00;154546.00;5029055;28;20460;-76
2023/10/30 01:30:53;;;;;;;1.63;1.00;;;;;;;12.39;100.00;154542.09;5027630;28;20851;-76
2023/10/30 01:33:20;;;;;;;1.30;1.00;;;;;;;12.38;100.00;154538.22;5005639;28;20553;-76
2023/10/30 01:35:46;;;;;;;1.60;1.20;;;;;;;12.37;100.00;154536.91;5008956;28;20440;-75
2023/10/30 01:38:13;;;;;;;1.50;1.27;;;;;;;12.43;100.00;154551.19;4996191;28;20475;-75
2023/10/30 01:40:46;;;;;;;1.73;1.23;;;;;;;12.41;100.00;154546.00;5022236;28;20456;-75
2023/10/30 01:43:14;;;;;;;1.73;1.17;;;;;;;12.38;100.00;154538.22;5033471;28;20443;-75
2023/10/30 01:45:41;;;;;;;1.43;1.10;;;;;;;12.43;100.00;154551.19;5013150;28;21056;-75
2023/10/30 01:48:08;;;;;;;1.33;0.93;;;;;;;12.46;100.00;154558.97;5011076;28;20517;-76
2023/10/30 01:50:34;;;;;;;1.80;0.90;;;;;;;12.48;100.00;154564.16;5012965;28;20946;-75
2023/10/30 01:53:02;;;;;;;1.60;1.10;;;;;;;12.49;100.00;154566.75;5029163;28;20463;-76
2023/10/30 01:55:29;;;;;;;1.93;0.87;;;;;;;12.52;100.00;154574.53;5009674;28;20510;-75
2023/10/30 01:57:55;;;;;;;1.20;0.80;;;;;;;12.55;100.00;154583.59;4987791;28;20475;-75
2023/10/30 02:00:23;;;;;;;2.10;1.10;;;;;;;12.54;100.00;154579.72;4992562;28;20460;-75
2023/10/30 02:02:51;;;;;;;1.50;1.00;;;;;;;12.56;100.00;154584.91;5019688;28;20799;-75
2023/10/30 02:05:18;;;;;;;1.70;1.33;;;;;;;12.55;100.00;154582.34;5004108;28;20455;-76
2023/10/30 02:07:45;;;;;;;1.73;1.00;;;;;;;12.57;100.00;154588.81;4999552;28;20465;-75
2023/10/30 02:10:12;;;;;;;2.10;1.73;;;;;;;12.60;100.00;154595.28;5020535;28;20610;-75
2023/10/30 02:12:39;;;;;;;1.30;0.80;;;;;;;12.60;100.00;154595.28;5009746;28;20853;-76
2023/10/30 02:15:08;;;;;;;1.30;0.80;;;;;;;12.57;100.00;154588.81;5026693;28;20452;-75
2023/10/30 02:17:36;;;;;;;1.60;1.00;;;;;;;12.58;100.00;154590.06;5019962;28;20468;-75
2023/10/30 02:20:03;;;;;;;1.70;1.10;;;;;;;12.62;100.00;154600.47;5023327;28;20463;-76
2023/10/30 02:22:29;;;;;;;2.70;1.13;;;;;;;12.63;100.00;154603.03;5028121;28;20459;-75
2023/10/30 02:24:56;;;;;;;1.23;0.97;;;;;;;12.58;100.00;154591.38;4994743;28;20906;-75
2023/10/30 02:27:24;;;;;;;1.80;1.60;;;;;;;12.55;100.00;154582.34;5004961;28;20463;-75
2023/10/30 02:29:51;;;;;;;2.60;1.90;;;;;;;12.55;100.00;154582.34;5019234;28;20456;-75
2023/10/30 02:32:18;;;;;;;1.90;1.40;;;;;;;12.51;100.00;154571.94;5006257;28;20462;-75
2023/10/30 02:34:44;;;;;;;2.70;1.23;;;;;;;12.49;100.00;154566.75;5006648;28;20459;-75
2023/10/30 02:37:11;;;;;;;1.47;1.10;;;;;;;12.45;100.00;154556.34;5033962;28;20509;-75
2023/10/30 02:39:37;;;;;;;1.57;1.00;;;;;;;12.48;100.00;154564.16;5028565;28;20474;-75
2023/10/30 02:42:04;;;;;;;1.57;1.03;;;;;;;12.46;100.00;154560.28;5008834;28;20563;-75
2023/10/30 02:44:32;;;;;;;1.73;1.47;;;;;;;12.44;100.00;154553.78;5018249;28;20446;-75
2023/10/30 02:46:59;;;;;;;1.80;1.37;;;;;;;12.37;100.00;154535.59;5010161;28;20451;-75
2023/10/30 02:49:25;;;;;;;1.70;1.20;;;;;;;12.33;100.00;154526.56;5006510;28;20506;-75
2023/10/30 02:51:52;;;;;;;2.63;1.80;;;;;;;12.31;100.00;154520.09;5011096;28;20806;-75
2023/10/30 02:54:18;;;;;;;1.57;0.83;;;;;;;12.26;100.00;154507.13;5011751;28;20462;-75
2023/10/30 02:56:45;;;;;;;1.80;1.47;;;;;;;12.23;100.00;154501.91;5009006;28;20467;-75
2023/10/30 02:59:11;;;;;;;1.67;1.30;;;;;;;12.26;100.00;154507.13;5026577;28;20492;-75
2023/10/30 03:01:40;;;;;;;2.70;1.27;;;;;;;12.25;100.00;154505.81;5009662;28;20459;-75
2023/10/30 03:04:06;;;;;;;3.20;1.20;;;;;;;12.23;100.00;154499.34;4991882;28;20564;-75
2023/10/30 03:06:33;;;;;;;2.27;1.37;;;;;;;12.25;100.00;154504.50;5019984;28;20478;-75
2023/10/30 03:09:00;;;;;;;2.00;1.20;;;;;;;12.22;100.00;154498.03;5022365;28;20451;-75
2023/10/30 03:11:26;;;;;;;2.13;1.50;;;;;;;12.21;100.00;154495.41;5011102;28;20914;-76
2023/10/30 03:13:53;;;;;;;1.90;1.50;;;;;;;12.19;100.00;154491.56;5023047;28;20819;-75
2023/10/30 03:16:19;;;;;;;2.10;1.23;;;;;;;12.22;100.00;154498.03;5007637;28;20569;-75
2023/10/30 03:18:47;;;;;;;5.70;1.50;;;;;;;12.18;100.00;154488.94;5017720;28;20482;-74
2023/10/30 03:21:14;;;;;;;1.73;1.40;;;;;;;12.17;100.00;154486.38;5011133;28;20531;-75
2023/10/30 03:23:40;;;;;;;1.33;1.20;;;;;;;12.16;100.00;154483.78;5009016;28;20468;-75
2023/10/30 03:26:07;;;;;;;1.80;1.40;;;;;;;12.19;100.00;154490.25;4993335;28;20780;-75
2023/10/30 03:28:33;;;;;;;2.07;1.70;;;;;;;12.20;100.00;154494.13;5011890;28;20478;-75
2023/10/30 03:31:05;;;;;;;2.20;1.60;;;;;;;12.17;100.00;154486.38;5034335;28;20506;-75
2023/10/30 03:33:32;;;;;;;1.90;1.60;;;;;;;12.19;100.00;154491.56;5011254;28;20852;-75
2023/10/30 03:36:00;;;;;;;2.10;1.60;;;;;;;12.18;100.00;154488.94;4996874;28;20486;-75
2023/10/30 03:38:26;;;;;;;2.00;1.63;;;;;;;12.16;100.00;154483.78;5009592;28;20534;-75
2023/10/30 03:40:53;;;;;;;2.20;2.00;;;;;;;12.17;100.00;154486.38;5009902;28;20493;-75
2023/10/30 03:43:20;;;;;;;2.33;2.00;;;;;;;12.16;100.00;154483.78;5010120;28;20452;-75
2023/10/30 03:45:46;;;;;;;2.53;2.00;;;;;;;12.18;100.00;154488.94;5040267;28;20781;-75
2023/10/30 03:48:14;;;;;;;2.83;2.17;;;;;;;12.17;100.00;154486.38;5001936;28;20459;-75
2023/10/30 03:50:43;;;;;;;3.00;2.00;;;;;;;12.23;100.00;154501.91;5010068;28;20455;-75
2023/10/30 03:53:11;;;;;;;4.17;2.40;;;;;;;12.20;100.00;154492.84;5011379;28;20517;-75
2023/10/30 03:55:37;;;;;;;2.47;1.67;;;;;;;12.18;100.00;154487.63;5005762;28;21054;-75
2023/10/30 03:58:04;;;;;;;3.00;2.37;;;;;;;12.19;100.00;154491.56;4998435;28;20544;-75
2023/10/30 04:00:31;;;;;;;3.57;1.83;;;;;;;12.18;100.00;154488.94;5019116;28;20452;-75
2023/10/30 04:02:57;;;;;;;2.33;2.00;;;;;;;12.18;100.00;154488.94;5026077;28;20458;-75
2023/10/30 04:05:24;;;;;;;2.83;1.80;;;;;;;12.14;100.00;154478.59;4985153;28;20457;-75
2023/10/30 04:07:50;;;;;;;2.40;1.80;;;;;;;12.13;100.00;154474.66;5005207;28;20460;-75
2023/10/30 04:10:18;;;;;;;1.83;1.13;;;;;;;12.10;100.00;154468.19;5019557;28;20505;-75
2023/10/30 04:12:45;;;;;;;2.10;1.73;;;;;;;12.08;100.00;154463.03;5015381;28;20522;-75
2023/10/30 04:15:15;;;;;;;3.87;1.60;;;;;;;12.07;100.00;154460.41;4998846;28;20464;-75
2023/10/30 04:17:41;;;;;;;1.90;1.50;;;;;;;12.02;100.00;154447.44;5006042;28;20440;-75
2023/10/30 04:20:08;;;;;;;2.50;1.30;;;;;;;11.95;100.00;154428.00;5001631;28;20451;-75
2023/10/30 04:22:34;;;;;;;2.03;1.17;;;;;;;11.89;100.00;154413.75;5021018;28;20448;-75
2023/10/30 04:25:01;;;;;;;1.30;1.00;;;;;;;11.85;100.00;154403.41;5000080;28;20951;-75
2023/10/30 04:27:29;;;;;;;1.93;1.13;;;;;;;11.86;100.00;154405.97;5018404;28;20819;-75
2023/10/30 04:29:56;;;;;;;1.40;0.93;;;;;;;11.79;100.00;154387.84;5006429;28;20463;-75
2023/10/30 04:32:22;;;;;;;1.50;1.10;;;;;;;11.77;100.00;154381.38;4998922;28;20455;-75
2023/10/30 04:34:49;;;;;;;1.93;1.47;;;;;;;11.75;100.00;154376.19;5023594;28;20440;-75
2023/10/30 04:37:15;;;;;;;2.07;1.40;;;;;;;11.77;100.00;154381.38;5006565;28;20499;-75
2023/10/30 04:39:42;;;;;;;3.83;1.57;;;;;;;11.77;100.00;154381.38;5025949;28;20486;-75
2023/10/30 04:42:08;;;;;;;2.30;1.67;;;;;;;11.78;100.00;154385.22;5025552;28;20436;-75
2023/10/30 04:44:36;;;;;;;1.93;1.47;;;;;;;11.79;100.00;154387.84;5010256;28;20494;-75
2023/10/30 04:47:03;;;;;;;2.30;2.10;;;;;;;11.81;100.00;154393.00;5027446;28;20447;-75
2023/10/30 04:49:34;;;;;;;2.30;2.10;;;;;;;11.76;100.00;154380.06;5016459;28;20807;-75
2023/10/30 04:52:01;;;;;;;4.27;3.50;;;;;;;11.74;100.00;154374.88;5020930;28;20447;-75
2023/10/30 04:54:27;;;;;;;4.30;3.90;;;;;;;11.72;100.00;154369.72;5002151;28;20452;-75
2023/10/30 04:56:54;;;;;;;4.47;3.73;;;;;;;11.75;100.00;154376.19;5015753;28;20808;-75
2023/10/30 04:59:20;;;;;;;4.60;4.10;;;;;;;11.74;100.00;154374.88;4995121;28;20472;-75
2023/10/30 05:01:48;;;;;;;5.47;4.37;;;;;;;11.73;100.00;154371.03;5000883;28;20455;-75
2023/10/30 05:04:17;;;;;;;6.03;4.80;;;;;;;11.68;100.00;154359.28;5017392;28;20456;-75
2023/10/30 05:06:43;;;;;;;5.77;5.27;;;;;;;11.66;100.00;154352.78;5021195;28;20467;-75
2023/10/30 05:09:10;;;;;;;5.47;4.90;;;;;;;11.65;100.00;154351.50;5025402;28;20451;-75
2023/10/30 05:11:38;;;;;;;5.60;4.73;;;;;;;11.63;100.00;154346.31;5018377;28;20458;-75
2023/10/30 05:14:05;;;;;;;7.00;6.00;;;;;;;11.60;100.00;154338.53;5003815;28;20470;-75
2023/10/30 05:16:31;;;;;;;6.17;5.17;;;;;;;11.62;100.00;154343.75;5003568;28;20448;-75
2023/10/30 05:18:59;;;;;;;6.63;5.97;;;;;;;11.60;100.00;154338.53;5018954;28;20472;-76
2023/10/30 05:21:26;;;;;;;8.13;6.00;;;;;;;11.63;100.00;154347.63;5001957;28;20447;-76
2023/10/30 05:23:53;;;;;;;8.00;7.20;;;;;;;11.59;100.00;154335.97;4999852;28;20443;-75
2023/10/30 05:26:19;;;;;;;9.60;7.30;;;;;;;11.60;100.00;154338.53;5028768;28;20600;-76
2023/10/30 05:28:46;;;;;;;10.27;8.20;;;;;;;11.64;100.00;154348.94;5036218;28;20463;-75
2023/10/30 05:31:14;;;;;;;7.33;6.60;;;;;;;11.67;100.00;154355.41;5039998;28;20489;-76
2023/10/30 05:33:40;;;;;;;7.10;5.97;;;;;;;11.57;100.00;154332.06;5023190;28;20464;-75
2023/10/30 05:36:09;;;;;;;9.87;7.43;;;;;;;11.57;100.00;154330.75;5018374;28;20448;-75
2023/10/30 05:38:36;;;;;;;7.53;6.67;;;;;;;11.54;100.00;154324.28;5021435;28;20472;-75
2023/10/30 05:41:03;;;;;;;9.43;7.20;;;;;;;11.53;100.00;154320.41;5019781;28;20477;-75
2023/10/30 05:43:30;;;;;;;8.27;7.30;;;;;;;11.56;100.00;154328.19;5008924;28;20455;-76
2023/10/30 05:45:57;;;;;;;7.10;5.83;;;;;;;11.55;100.00;154325.59;5012904;28;20510;-75
2023/10/30 05:48:24;;;;;;;8.90;6.40;;;;;;;11.52;100.00;154317.81;4999977;28;20472;-74
2023/10/30 05:50:50;;;;;;;7.20;6.50;;;;;;;11.49;100.00;154311.31;5021903;28;20459;-74
2023/10/30 05:53:19;;;;;;;7.97;5.40;;;;;;;11.48;100.00;154307.47;5008269;28;20443;-74
2023/10/30 05:55:45;;;;;;;6.10;5.40;;;;;;;11.45;100.00;154299.69;5016139;28;20988;-74
2023/10/30 05:58:12;;;;;;;7.97;6.40;;;;;;;11.42;100.00;154291.91;4999482;28;20664;-74
2023/10/30 06:00:38;;;;;;;7.33;6.30;;;;;;;11.38;100.00;154281.56;5023046;28;21054;-74
2023/10/30 06:03:07;;;;;;;7.53;6.00;;;;;;;11.36;100.00;154276.34;5000282;28;21040;-74
2023/10/30 06:05:34;;;;;;;7.07;6.37;;;;;;;11.34;100.00;154271.16;5015887;28;20577;-74
2023/10/30 06:08:00;;;;;;;7.30;6.50;;;;;;;11.32;100.00;154266.00;5013842;28;20456;-74
2023/10/30 06:10:28;;;;;;;10.90;9.13;;;;;;;11.27;100.00;154254.34;5011989;28;20451;-74
2023/10/30 06:12:55;;;;;;;13.53;10.40;;;;;;;11.27;100.00;154253.03;5012000;28;20452;-74
2023/10/30 06:15:22;;;;;;;25.90;22.07;;;;;;;11.24;100.00;154246.56;4999236;28;20858;-74
2023/10/30 06:17:49;;;;;;;12.37;11.20;;;;;;;11.27;100.00;154253.03;4994901;28;20471;-74
2023/10/30 06:20:15;;;;;;;9.50;8.50;;;;;;;11.18;100.00;154231.00;4996361;28;20857;-75
2023/10/30 06:22:42;;;;;;;9.07;7.93;;;;;;;11.19;100.00;154233.63;4998961;28;20455;-75
2023/10/30 06:25:09;;;;;;;9.43;8.40;;;;;;;11.18;100.00;154229.72;5016086;28;20491;-74
2023/10/30 06:27:41;;;;;;;8.47;7.27;;;;;;;11.18;100.00;154229.72;5000180;28;20455;-75
2023/10/30 06:30:12;;;;;;;8.90;8.00;;;;;;;11.17;100.00;154228.44;5017362;28;20554;-76
2023/10/30 06:32:39;;;;;;;10.67;8.33;;;;;;;11.20;100.00;154234.94;4999906;28;20526;-76
2023/10/30 06:35:07;;;;;;;9.27;7.70;;;;;;;11.20;100.00;154234.94;4992029;28;20451;-75
2023/10/30 06:37:34;;;;;;;8.73;6.77;;;;;;;11.16;100.00;154224.53;5017057;28;20452;-75
2023/10/30 06:40:00;;;;;;;10.93;8.57;;;;;;;11.22;100.00;154241.41;5018511;28;20476;-75
2023/10/30 06:42:27;;;;;;;8.30;6.93;;;;;;;11.25;100.00;154247.88;5017229;28;20443;-75
2023/10/30 06:44:55;;;;;;;8.90;8.00;;;;;;;11.30;100.00;154262.13;5017362;28;20448;-75
2023/10/30 06:47:22;;;;;;;10.10;8.63;;;;;;;11.45;100.00;154299.69;5016873;28;20447;-75
2023/10/30 06:49:48;;;;;;;9.60;8.60;;;;;;;11.78;100.00;154383.97;4999249;28;20440;-75
2023/10/30 06:52:15;;;;;;;11.07;8.40;;;;;;;11.98;100.00;154437.09;5017688;28;20459;-75
2023/10/30 06:54:41;;;;;;;9.07;7.70;;;;;;;12.23;100.00;154500.66;5017610;28;20561;-75
2023/10/30 06:57:08;;;;;;;8.00;6.53;;;;;;;12.69;100.00;154618.63;5019068;28;20464;-75
2023/10/30 06:59:34;;;;;;;8.43;6.50;;;;;;;13.20;100.00;154751.00;4998371;28;20873;-75
2023/10/30 07:02:03;;;;;;;9.60;6.83;;;;;;;13.42;100.00;154808.06;5017099;28;20950;-75
2023/10/30 07:04:30;;;;;;;8.00;6.10;;;;;;;13.78;100.00;154898.91;5017001;28;20451;-75
2023/10/30 07:06:56;;;;;;;6.20;5.27;;;;;;;14.21;100.00;155009.28;5018044;28;20555;-75
2023/10/30 07:09:26;;;;;;;5.67;5.17;;;;;;;14.29;100.00;155031.38;4998391;28;20549;-75
2023/10/30 07:11:52;;;;;;;7.27;6.23;;;;;;;14.15;100.00;154995.00;4999112;28;20461;-75
2023/10/30 07:14:19;;;;;;;6.90;6.20;;;;;;;14.46;100.00;155074.25;5016163;28;20561;-75
2023/10/30 07:16:45;;;;;;;7.27;5.27;;;;;;;14.61;100.00;155113.25;5017730;28;20460;-75
2023/10/30 07:19:15;;;;;;;6.33;5.53;;;;;;;14.51;100.00;155087.22;5012997;28;20878;-75
2023/10/30 07:21:42;;;;;;;6.07;5.47;;;;;;;14.52;100.00;155091.16;5015815;28;20780;-76
2023/10/30 07:24:09;;;;;;;5.50;5.00;;;;;;;14.58;100.00;155106.75;5017153;28;20567;-75
2023/10/30 07:26:35;;;;;;;6.40;5.77;;;;;;;14.91;100.00;155189.84;5019014;28;20935;-75
2023/10/30 07:29:02;;;;;;;6.43;5.23;;;;;;;14.71;100.00;155137.91;5015016;28;20448;-75
2023/10/30 07:31:29;;;;;;;6.50;5.80;;;;;;;14.53;100.00;155092.47;5015997;28;20837;-75
2023/10/30 07:33:55;;;;;;;6.27;5.67;;;;;;;14.78;100.00;155156.06;5013694;28;20896;-76
2023/10/30 07:36:23;;;;;;;6.17;5.47;;;;;;;15.24;100.00;155275.63;5001015;28;20456;-76
2023/10/30 07:38:50;;;;;;;6.37;5.67;;;;;;;15.20;100.00;155265.19;5017807;28;20459;-76
2023/10/30 07:41:17;;;;;;;5.80;5.20;;;;;;;14.79;100.00;155158.69;5020670;28;20450;-75
2023/10/30 07:43:43;;;;;;;7.00;6.13;;;;;;;14.03;100.00;154963.84;5017709;28;20461;-75
2023/10/30 07:46:13;;;;;;;7.43;5.80;;;;;;;13.70;100.00;154879.47;5017711;28;20452;-75
2023/10/30 07:48:41;;;;;;;7.00;5.60;;;;;;;13.55;100.00;154840.53;4997944;28;20463;-75
2023/10/30 07:51:08;;;;;;;5.80;5.20;;;;;;;13.49;100.00;154824.94;5015424;28;20802;-75
2023/10/30 07:53:36;;;;;;;7.70;6.13;;;;;;;13.39;100.00;154800.31;4998416;28;20455;-75
2023/10/30 07:56:03;;;;;;;6.40;5.43;;;;;;;13.23;100.00;154757.47;5003614;28;20449;-75
2023/10/30 07:58:30;;;;;;;7.07;5.80;;;;;;;13.26;100.00;154765.28;5014053;28;20486;-75
2023/10/30 08:00:57;;;;;;;5.83;5.30;;;;;;;13.17;100.00;154743.22;5014278;28;20475;-75
2023/10/30 08:03:29;;;;;;;7.70;5.80;;;;;;;13.15;100.00;154738.03;5012427;28;20529;-75
2023/10/30 08:05:58;;;;;;;7.27;6.00;;;;;;;13.18;100.00;154745.81;4995873;28;20463;-75
2023/10/30 08:08:25;;;;;;;7.00;6.20;;;;;;;13.21;100.00;154752.31;5015289;28;20468;-75
2023/10/30 08:10:53;;;;;;;6.47;5.73;;;;;;;13.28;100.00;154771.75;4995773;28;20485;-75
2023/10/30 08:13:20;;;;;;;7.80;5.80;;;;;;;13.33;100.00;154783.44;5012772;28;20490;-75
2023/10/30 08:15:47;;;;;;;6.13;5.40;;;;;;;13.32;100.00;154782.13;5016103;28;20530;-75
2023/10/30 08:18:14;;;;;;;6.60;5.30;;;;;;;13.33;100.00;154784.72;5017274;28;21190;-75
2023/10/30 08:20:41;;;;;;;7.00;6.13;;;;;;;13.40;100.00;154802.88;4991561;28;21133;-75
2023/10/30 08:23:07;;;;;;;5.53;4.70;;;;;;;13.45;100.00;154813.28;4993042;28;20455;-75
2023/10/30 08:25:34;;;;;;;6.00;5.40;;;;;;;13.42;100.00;154808.06;5011316;28;20463;-75
2023/10/30 08:28:03;;;;;;;6.00;5.40;;;;;;;13.40;100.00;154802.88;5013541;28;20463;-75
2023/10/30 08:30:30;;;;;;;6.53;5.53;;;;;;;13.44;100.00;154811.97;5014883;28;20575;-75
2023/10/30 08:32:57;;;;;;;6.23;4.80;;;;;;;13.52;100.00;154832.75;4999555;28;20451;-74
2023/10/30 08:35:23;;;;;;;7.73;5.10;;;;;;;13.59;100.00;154849.59;5019817;28;20452;-75
2023/10/30 08:37:50;;;;;;;6.90;5.30;;;;;;;13.57;100.00;154845.72;5018968;28;21192;-74
2023/10/30 08:40:17;;;;;;;6.73;4.97;;;;;;;13.56;100.00;154841.78;5015006;28;20837;-74
2023/10/30 08:42:44;;;;;;;5.70;4.43;;;;;;;13.55;100.00;154839.22;5018353;28;20451;-74
2023/10/30 08:45:12;;;;;;;6.10;5.50;;;;;;;13.55;100.00;154839.22;5023342;28;20451;-74
2023/10/30 08:47:38;;;;;;;5.80;5.27;;;;;;;13.66;100.00;154867.78;5001977;28;20903;-75
2023/10/30 08:50:07;;;;;;;6.33;4.60;;;;;;;13.74;100.00;154888.56;4994626;28;20470;-75
2023/10/30 08:52:33;;;;;;;5.27;4.40;;;;;;;13.78;100.00;154898.91;5013913;28;20468;-76
2023/10/30 08:55:00;;;;;;;5.10;4.60;;;;;;;13.77;100.00;154896.31;4997170;28;20447;-75
2023/10/30 08:57:26;;;;;;;4.43;4.03;;;;;;;13.84;100.00;154914.50;4979134;28;20805;-74
2023/10/30 08:59:53;;;;;;;5.30;4.80;;;;;;;13.91;100.00;154932.66;5013028;28;20807;-75
2023/10/30 09:02:21;;;;;;;5.50;4.53;;;;;;;13.90;100.00;154930.06;5014725;28;20510;-75
2023/10/30 09:04:47;;;;;;;5.40;4.90;;;;;;;13.88;100.00;154924.88;5013790;28;20447;-75
2023/10/30 09:07:14;;;;;;;5.30;4.80;;;;;;;13.84;100.00;154914.50;5013228;28;21032;-74
2023/10/30 09:09:40;;;;;;;7.17;5.07;;;;;;;13.80;100.00;154904.09;5013096;28;20459;-74
2023/10/30 09:12:08;;;;;;;8.20;5.03;;;;;;;13.84;100.00;154915.81;5013419;28;20459;-76
2023/10/30 09:14:34;;;;;;;6.33;5.60;;;;;;;13.83;100.00;154913.22;5012121;28;20515;-76
2023/10/30 09:17:01;;;;;;;5.40;4.90;;;;;;;13.85;100.00;154917.06;4997373;28;21030;-76
2023/10/30 09:19:29;;;;;;;8.20;5.77;;;;;;;13.85;100.00;154918.38;4994501;28;20475;-74
2023/10/30 09:21:55;;;;;;;6.03;5.43;;;;;;;13.89;100.00;154928.81;5014828;28;20452;-75
2023/10/30 09:24:22;;;;;;;5.13;4.43;;;;;;;13.91;100.00;154932.66;5017523;28;20456;-77
2023/10/30 09:26:48;;;;;;;6.80;4.90;;;;;;;13.98;100.00;154950.81;5010084;28;20776;-76
2023/10/30 09:29:15;;;;;;;5.93;5.33;;;;;;;14.02;100.00;154961.25;4994477;28;21028;-76
2023/10/30 09:31:41;;;;;;;5.17;4.60;;;;;;;14.08;100.00;154976.84;4984447;28;20453;-74
2023/10/30 09:34:11;;;;;;;5.33;4.77;;;;;;;14.10;100.00;154982.03;4998582;28;20459;-76
2023/10/30 09:36:39;;;;;;;5.13;4.47;;;;;;;14.14;100.00;154992.38;5000079;28;20463;-76
2023/10/30 09:39:07;;;;;;;6.30;4.43;;;;;;;14.18;100.00;155002.78;4997398;28;20460;-76
2023/10/30 09:41:38;;;;;;;5.30;4.80;;;;;;;14.20;100.00;155007.97;5004323;28;20478;-76
2023/10/30 09:44:11;;;;;;;4.90;3.93;;;;;;;14.24;100.00;155018.38;5016071;28;20455;-76
2023/10/30 09:46:39;;;;;;;5.20;4.70;;;;;;;14.26;100.00;155022.25;5004314;28;20444;-76
2023/10/30 09:49:06;;;;;;;4.93;4.50;;;;;;;14.28;100.00;155028.75;5013469;28;21045;-76
2023/10/30 09:51:33;;;;;;;5.23;4.27;;;;;;;14.28;100.00;155028.75;5004387;28;20460;-75
2023/10/30 09:54:01;;;;;;;5.20;4.63;;;;;;;14.26;100.00;155023.56;5002810;28;21762;-75
2023/10/30 09:56:31;;;;;;;5.43;4.80;;;;;;;14.31;100.00;155036.59;5016061;28;20451;-74
2023/10/30 09:58:59;;;;;;;5.40;4.40;;;;;;;14.36;100.00;155049.59;5017777;28;20487;-75
2023/10/30 10:01:27;;;;;;;5.33;4.83;;;;;;;14.37;100.00;155050.88;5021135;28;20474;-74
2023/10/30 10:03:53;;;;;;;5.43;4.50;;;;;;;14.37;100.00;155052.19;5019676;28;20850;-75
2023/10/30 10:06:20;;;;;;;5.80;5.03;;;;;;;14.46;100.00;155074.25;5019080;28;20455;-75
2023/10/30 10:08:47;;;;;;;5.07;4.57;;;;;;;14.50;100.00;155084.66;5020582;28;20477;-76
2023/10/30 10:11:15;;;;;;;5.20;4.70;;;;;;;14.52;100.00;155091.16;5002789;28;20559;-75
2023/10/30 10:13:48;;;;;;;5.10;4.20;;;;;;;14.54;100.00;155095.03;5021092;28;20455;-75
2023/10/30 10:16:14;;;;;;;4.73;4.10;;;;;;;14.54;100.00;155096.31;5020684;28;20440;-75
2023/10/30 10:18:42;;;;;;;6.10;4.63;;;;;;;14.52;100.00;155091.16;5003653;28;20454;-75
2023/10/30 10:21:09;;;;;;;5.40;4.50;;;;;;;14.50;100.00;155085.97;5020772;28;20791;-76
2023/10/30 10:23:37;;;;;;;4.57;4.00;;;;;;;14.60;100.00;155110.63;5016332;28;20451;-76
2023/10/30 10:26:04;;;;;;;4.63;3.90;;;;;;;14.62;100.00;155117.09;5002147;28;20443;-75
2023/10/30 10:28:33;;;;;;;4.70;4.10;;;;;;;14.69;100.00;155134.03;4999976;28;20471;-75
2023/10/30 10:31:00;;;;;;;3.70;3.27;;;;;;;14.66;100.00;155126.22;5020115;28;20451;-76
2023/10/30 10:33:28;;;;;;;4.27;3.50;;;;;;;14.72;100.00;155140.50;4997674;28;20471;-76
2023/10/30 10:35:55;;;;;;;5.27;4.50;;;;;;;14.68;100.00;155131.41;5018153;28;20447;-75
2023/10/30 10:38:22;;;;;;;4.50;3.60;;;;;;;14.66;100.00;155126.22;5021156;28;20550;-75
2023/10/30 10:40:50;;;;;;;4.60;3.00;;;;;;;14.71;100.00;155137.91;5019516;28;20468;-76
2023/10/30 10:43:18;;;;;;;4.17;2.43;;;;;;;14.77;100.00;155153.50;5020319;28;20463;-75
2023/10/30 10:45:47;;;;;;;3.93;2.17;;;;;;;14.78;100.00;155157.38;5020077;28;20455;-75
2023/10/30 10:48:14;;;;;;;1.83;1.40;;;;;;;14.77;100.00;155153.50;4999361;28;20467;-74
2023/10/30 10:50:41;;;;;;;1.80;1.47;;;;;;;14.82;100.00;155166.47;4998592;28;20464;-74
2023/10/30 10:53:08;;;;;;;1.80;1.60;;;;;;;14.84;100.00;155172.97;5019187;28;20471;-74
2023/10/30 10:55:40;;;;;;;2.23;1.50;;;;;;;14.85;100.00;155174.28;5018476;28;20456;-74
2023/10/30 10:58:12;;;;;;;2.10;1.77;;;;;;;14.90;100.00;155187.28;5000306;28;20476;-74
2023/10/30 11:00:43;;;;;;;3.80;1.77;;;;;;;14.85;100.00;155175.53;5014898;28;20901;-77
2023/10/30 11:03:12;;;;;;;2.83;1.50;;;;;;;14.87;100.00;155179.47;5013743;28;20468;-75
2023/10/30 11:05:38;;;;;;;1.90;1.67;;;;;;;14.83;100.00;155170.34;5000948;28;20983;-74
2023/10/30 11:08:24;;;;;;;4.30;1.93;;;;;;;14.83;100.00;155169.06;5021154;28;20458;-74
2023/10/30 11:10:55;;;;;;;4.13;1.60;;;;;;;14.89;100.00;155184.66;5000331;28;20485;-74
2023/10/30 11:13:26;;;;;;;2.00;1.30;;;;;;;14.86;100.00;155176.84;5019142;28;20452;-75
2023/10/30 11:15:57;;;;;;;3.53;1.70;;;;;;;14.88;100.00;155182.09;4997374;28;21083;-75